Terminal Aerodrome Forecast
Issued by NWS Atlanta, GA

Home | Current Version | Previous Version | Text Only | Print | Product List | Glossary On
Versions: 1 2 3 4 5 6 7 8 9 10 11 12 13 14 15 16 17 18
000
FTUS42 KFFC 220520
TAFMCN
TAF
KMCN 220520Z 2206/2306 31009KT P6SM FEW035
     FM221000 VRB04KT P6SM SKC
     FM221400 02005KT P6SM SKC
     FM221700 05006KT P6SM FEW040
     FM230200 03004KT P6SM SKC=

USA.gov is the U.S. government's official web portal to all federal, state and local government web resources and services.